createdAt,value
2024-04-11T00:00:32.676Z,3.66
2024-04-11T00:01:32.859Z,3.70
2024-04-11T00:02:32.850Z,3.73
2024-04-11T00:03:32.720Z,3.77
2024-04-11T00:04:32.672Z,3.77
2024-04-11T00:05:32.648Z,3.77
2024-04-11T00:06:32.596Z,3.73
2024-04-11T00:07:32.578Z,3.65
2024-04-11T00:08:32.617Z,3.59
2024-04-11T00:09:32.548Z,3.50
2024-04-11T00:10:32.574Z,3.51
2024-04-11T00:11:32.605Z,3.50
2024-04-11T00:12:32.632Z,3.53
2024-04-11T00:13:32.493Z,3.51
2024-04-11T00:14:32.572Z,3.44
2024-04-11T00:15:32.475Z,3.42
2024-04-11T00:16:32.503Z,3.40
2024-04-11T00:17:32.589Z,3.40
2024-04-11T00:18:32.619Z,3.41
2024-04-11T00:19:32.421Z,3.42
2024-04-11T00:20:32.475Z,3.47
2024-04-11T00:21:32.392Z,3.45
2024-04-11T00:22:32.381Z,3.51
2024-04-11T00:23:32.410Z,3.50
2024-04-11T00:24:32.358Z,3.45
2024-04-11T00:25:32.344Z,3.47
2024-04-11T00:26:32.385Z,3.37
2024-04-11T00:27:32.314Z,3.31
2024-04-11T00:28:32.301Z,3.28
2024-04-11T00:29:32.313Z,3.28
2024-04-11T00:30:32.275Z,3.31
2024-04-11T00:31:32.259Z,3.29
2024-04-11T00:32:32.435Z,3.34
2024-04-11T00:33:32.436Z,3.29
2024-04-11T00:34:32.352Z,3.29
2024-04-11T00:35:32.273Z,3.26
2024-04-11T00:36:32.196Z,3.31
2024-04-11T00:37:32.190Z,3.32
2024-04-11T00:38:32.181Z,3.32
2024-04-11T00:39:32.162Z,3.34
2024-04-11T00:40:32.142Z,3.34
2024-04-11T00:41:32.203Z,3.34
2024-04-11T00:42:32.150Z,3.32
2024-04-11T00:43:32.100Z,3.34
2024-04-11T00:44:32.106Z,3.29
2024-04-11T00:45:32.074Z,3.28
2024-04-11T00:46:32.063Z,3.28
2024-04-11T00:47:32.295Z,3.28
2024-04-11T00:48:32.279Z,3.25
2024-04-11T00:49:32.088Z,3.23
2024-04-11T00:50:32.040Z,3.19
2024-04-11T00:51:31.998Z,3.13
2024-04-11T00:52:31.988Z,3.08
2024-04-11T00:53:32.029Z,3.05
2024-04-11T00:54:31.957Z,3.03
2024-04-11T00:55:31.974Z,2.97
2024-04-11T00:56:31.983Z,3.00
2024-04-11T00:57:31.927Z,2.93
2024-04-11T00:58:31.933Z,2.86
2024-04-11T00:59:31.984Z,2.82
2024-04-11T01:00:31.977Z,2.75
2024-04-11T01:01:31.867Z,2.72
2024-04-11T01:02:31.906Z,2.68
2024-04-11T01:03:31.963Z,2.69
2024-04-11T01:04:31.976Z,2.79
2024-04-11T01:05:31.871Z,2.79
2024-04-11T01:06:31.805Z,2.77
2024-04-11T01:07:31.784Z,2.71
2024-04-11T01:08:31.822Z,2.69
2024-04-11T01:09:31.775Z,2.69
2024-04-11T01:10:31.746Z,2.69
2024-04-11T01:11:31.803Z,2.72
2024-04-11T01:12:31.719Z,2.80
2024-04-11T01:13:31.716Z,2.83
2024-04-11T01:14:31.805Z,2.82
2024-04-11T01:15:31.705Z,2.80
2024-04-11T01:16:31.673Z,2.85
2024-04-11T01:17:31.802Z,2.86
2024-04-11T01:18:31.730Z,2.85
2024-04-11T01:19:31.640Z,2.89
2024-04-11T01:20:31.686Z,2.89
2024-04-11T01:21:31.601Z,2.93
2024-04-11T01:22:31.590Z,2.93
2024-04-11T01:23:31.630Z,2.92
2024-04-11T01:24:31.582Z,2.95
2024-04-11T01:25:31.576Z,2.97
2024-04-11T01:26:31.571Z,2.95
2024-04-11T01:27:31.534Z,2.92
2024-04-11T01:28:31.516Z,2.90
2024-04-11T01:29:31.552Z,2.85
2024-04-11T01:30:31.524Z,2.77
2024-04-11T01:31:31.479Z,2.72
2024-04-11T01:32:31.602Z,2.65
2024-04-11T01:33:31.690Z,2.67
2024-04-11T01:34:31.659Z,2.65
2024-04-11T01:35:31.485Z,2.67
2024-04-11T01:36:31.412Z,2.68
2024-04-11T01:37:31.405Z,2.68
2024-04-11T01:38:31.388Z,2.69
2024-04-11T01:39:31.371Z,2.71
2024-04-11T01:40:31.419Z,2.74
2024-04-11T01:41:31.371Z,2.77
2024-04-11T01:42:31.331Z,2.75
2024-04-11T01:43:31.322Z,2.72
2024-04-11T01:44:31.326Z,2.77
2024-04-11T01:45:31.322Z,2.75
2024-04-11T01:46:31.369Z,2.71
2024-04-11T01:47:31.526Z,2.64
2024-04-11T01:48:31.386Z,2.57
2024-04-11T01:49:31.257Z,2.54
2024-04-11T01:50:31.253Z,2.54
2024-04-11T01:51:31.215Z,2.50
2024-04-11T01:52:31.200Z,2.46
2024-04-11T01:53:31.221Z,2.43
2024-04-11T01:54:31.202Z,2.47
2024-04-11T01:55:31.172Z,2.54
2024-04-11T01:56:31.166Z,2.57
2024-04-11T01:57:31.135Z,2.64
2024-04-11T01:58:31.126Z,2.67
2024-04-11T01:59:31.168Z,2.67
2024-04-11T02:00:31.111Z,2.62
2024-04-11T02:01:31.089Z,2.53
2024-04-11T02:02:31.330Z,2.47
2024-04-11T02:03:31.251Z,2.42
2024-04-11T02:04:31.084Z,2.36
2024-04-11T02:05:31.116Z,2.43
2024-04-11T02:06:31.034Z,2.42
2024-04-11T02:07:31.038Z,2.49
2024-04-11T02:08:31.037Z,2.44
2024-04-11T02:09:30.991Z,2.47
2024-04-11T02:10:30.975Z,2.43
2024-04-11T02:11:31.084Z,2.39
2024-04-11T02:12:31.072Z,2.35
2024-04-11T02:13:30.933Z,2.26
2024-04-11T02:14:31.066Z,2.25
2024-04-11T02:15:30.907Z,2.24
2024-04-11T02:16:30.913Z,2.20
2024-04-11T02:17:30.940Z,2.28
2024-04-11T02:18:31.086Z,2.26
2024-04-11T02:19:30.863Z,2.29
2024-04-11T02:20:30.855Z,2.31
2024-04-11T02:21:30.830Z,2.35
2024-04-11T02:22:30.812Z,2.39
2024-04-11T02:23:30.852Z,2.33
2024-04-11T02:24:30.789Z,2.33
2024-04-11T02:25:30.780Z,2.35
2024-04-11T02:26:30.862Z,2.28
2024-04-11T02:27:30.758Z,2.25
2024-04-11T02:28:30.738Z,2.25
2024-04-11T02:29:30.745Z,2.26
2024-04-11T02:30:30.720Z,2.33
2024-04-11T02:31:30.703Z,2.29
2024-04-11T02:32:30.748Z,2.25
2024-04-11T02:33:30.867Z,2.24
2024-04-11T02:34:30.981Z,2.31
2024-04-11T02:35:30.657Z,2.33
2024-04-11T02:36:30.634Z,2.35
2024-04-11T02:37:30.614Z,2.35
2024-04-11T02:38:30.664Z,2.36
2024-04-11T02:39:30.605Z,2.42
2024-04-11T02:40:30.580Z,2.39
2024-04-11T02:41:30.608Z,2.38
2024-04-11T02:42:30.559Z,2.33
2024-04-11T02:43:30.548Z,2.35
2024-04-11T02:44:30.650Z,2.33
2024-04-11T02:45:30.522Z,2.35
2024-04-11T02:46:30.503Z,2.36
2024-04-11T02:47:30.593Z,2.36
2024-04-11T02:48:30.599Z,2.33
2024-04-11T02:49:30.474Z,2.39
2024-04-11T02:50:30.499Z,2.43
2024-04-11T02:51:30.443Z,2.44
2024-04-11T02:52:30.437Z,2.49
2024-04-11T02:53:30.424Z,2.51
2024-04-11T02:54:30.405Z,2.51
2024-04-11T02:55:30.394Z,2.49
2024-04-11T02:56:30.414Z,2.44
2024-04-11T02:57:30.372Z,2.43
2024-04-11T02:58:30.351Z,2.35
2024-04-11T02:59:30.399Z,2.33
2024-04-11T03:00:30.391Z,2.32
2024-04-11T03:01:30.308Z,2.36
2024-04-11T03:02:30.521Z,2.38
2024-04-11T03:03:30.509Z,2.39
2024-04-11T03:04:30.425Z,2.28
2024-04-11T03:05:30.276Z,2.22
2024-04-11T03:06:30.262Z,2.22
2024-04-11T03:07:30.228Z,2.22
2024-04-11T03:08:30.276Z,2.22
2024-04-11T03:09:30.314Z,2.18
2024-04-11T03:10:30.193Z,2.20
2024-04-11T03:11:30.491Z,2.17
2024-04-11T03:12:30.217Z,2.17
2024-04-11T03:13:30.157Z,2.17
2024-04-11T03:14:30.193Z,2.17
2024-04-11T03:15:30.139Z,2.22
2024-04-11T03:16:30.144Z,2.20
2024-04-11T03:17:30.175Z,2.14
2024-04-11T03:18:31.365Z,2.14
2024-04-11T03:19:30.070Z,2.14
2024-04-11T03:20:30.104Z,2.10
2024-04-11T03:21:30.054Z,2.17
2024-04-11T03:22:30.048Z,2.15
2024-04-11T03:23:30.049Z,2.14
2024-04-11T03:24:30.026Z,2.11
2024-04-11T03:25:30.002Z,2.11
2024-04-11T03:26:30.019Z,2.13
2024-04-11T03:27:29.967Z,2.15
2024-04-11T03:28:29.960Z,2.14
2024-04-11T03:29:29.991Z,2.17
2024-04-11T03:30:29.928Z,2.22
2024-04-11T03:31:29.920Z,2.17
2024-04-11T03:32:29.972Z,2.11
2024-04-11T03:33:30.090Z,2.15
2024-04-11T03:34:30.058Z,2.10
2024-04-11T03:35:29.911Z,2.08
2024-04-11T03:36:29.849Z,2.11
2024-04-11T03:37:29.843Z,2.07
2024-04-11T03:38:29.857Z,2.02
2024-04-11T03:39:29.811Z,1.95
2024-04-11T03:40:29.804Z,1.91
2024-04-11T03:41:29.799Z,1.95
2024-04-11T03:42:29.769Z,2.00
2024-04-11T03:43:29.755Z,2.02
2024-04-11T03:44:29.775Z,2.08
2024-04-11T03:45:29.730Z,2.13
2024-04-11T03:46:29.717Z,2.15
2024-04-11T03:47:29.887Z,2.11
2024-04-11T03:48:29.888Z,2.10
2024-04-11T03:49:29.675Z,1.99
2024-04-11T03:50:29.732Z,1.97
2024-04-11T03:51:29.749Z,2.00
2024-04-11T03:52:29.642Z,1.97
2024-04-11T03:53:29.660Z,1.95
2024-04-11T03:54:29.628Z,1.97
2024-04-11T03:55:29.597Z,2.02
2024-04-11T03:56:29.872Z,2.06
2024-04-11T03:57:29.577Z,2.07
2024-04-11T03:58:29.561Z,2.11
2024-04-11T03:59:29.685Z,2.08
2024-04-11T04:00:29.538Z,2.07
2024-04-11T04:01:29.868Z,2.10
2024-04-11T04:02:29.632Z,2.10
2024-04-11T04:03:29.646Z,2.10
2024-04-11T04:04:29.546Z,2.07
2024-04-11T04:05:29.489Z,2.02
2024-04-11T04:06:29.447Z,1.99
2024-04-11T04:07:29.431Z,1.99
2024-04-11T04:08:29.471Z,1.95
2024-04-11T04:09:29.407Z,1.95
2024-04-11T04:10:29.406Z,1.91
2024-04-11T04:11:29.451Z,1.91
2024-04-11T04:12:29.491Z,1.97
2024-04-11T04:13:29.361Z,1.95
2024-04-11T04:14:30.829Z,1.95
2024-04-11T04:15:29.330Z,1.88
2024-04-11T04:16:29.380Z,1.81
2024-04-11T04:17:29.508Z,1.84
2024-04-11T04:18:29.450Z,1.85
2024-04-11T04:19:29.279Z,1.78
2024-04-11T04:20:29.272Z,1.77
2024-04-11T04:21:29.263Z,1.76
2024-04-11T04:22:29.248Z,1.67
2024-04-11T04:23:29.312Z,1.59
2024-04-11T04:24:29.213Z,1.58
2024-04-11T04:25:29.190Z,1.59
2024-04-11T04:26:29.194Z,1.58
2024-04-11T04:27:29.165Z,1.62
2024-04-11T04:28:29.155Z,1.60
2024-04-11T04:29:29.192Z,1.63
2024-04-11T04:30:29.128Z,1.66
2024-04-11T04:31:29.120Z,1.76
2024-04-11T04:32:29.269Z,1.78
2024-04-11T04:33:29.280Z,1.78
2024-04-11T04:34:29.298Z,1.78
2024-04-11T04:35:29.087Z,1.87
2024-04-11T04:36:29.051Z,1.94
2024-04-11T04:37:29.033Z,1.95
2024-04-11T04:38:29.070Z,1.95
2024-04-11T04:39:29.001Z,1.97
2024-04-11T04:40:28.990Z,2.02
2024-04-11T04:41:29.032Z,2.00
2024-04-11T04:42:28.981Z,1.99
2024-04-11T04:43:28.957Z,1.94
2024-04-11T04:44:28.959Z,1.87
2024-04-11T04:45:28.918Z,1.78
2024-04-11T04:46:28.917Z,1.71
2024-04-11T04:47:28.977Z,1.67
2024-04-11T04:48:29.042Z,1.52
2024-04-11T04:49:29.001Z,1.52
2024-04-11T04:50:28.886Z,1.53
2024-04-11T04:51:28.870Z,1.55
2024-04-11T04:52:28.829Z,1.66
2024-04-11T04:53:28.848Z,1.67
2024-04-11T04:54:28.803Z,1.66
2024-04-11T04:55:28.791Z,1.76
2024-04-11T04:56:28.789Z,1.73
2024-04-11T04:57:28.760Z,1.67
2024-04-11T04:58:28.766Z,1.74
2024-04-11T04:59:28.749Z,1.73
2024-04-11T05:00:28.763Z,1.76
2024-04-11T05:01:28.708Z,1.76
2024-04-11T05:02:28.718Z,1.77
2024-04-11T05:03:28.788Z,1.78
2024-04-11T05:04:28.721Z,1.76
2024-04-11T05:05:28.694Z,1.81
2024-04-11T05:06:28.639Z,1.84
2024-04-11T05:07:28.628Z,1.97
2024-04-11T05:08:28.652Z,2.02
2024-04-11T05:09:28.596Z,2.07
2024-04-11T05:10:28.584Z,2.13
2024-04-11T05:11:28.668Z,2.22
2024-04-11T05:12:28.722Z,2.22
2024-04-11T05:13:28.545Z,2.29
2024-04-11T05:14:28.573Z,2.35
2024-04-11T05:15:28.522Z,2.39
2024-04-11T05:16:28.546Z,2.43
2024-04-11T05:17:28.526Z,2.50
2024-04-11T05:18:28.555Z,2.50
2024-04-11T05:19:28.460Z,2.51
2024-04-11T05:20:28.494Z,2.54
2024-04-11T05:21:28.434Z,2.62
2024-04-11T05:22:28.424Z,2.62
2024-04-11T05:23:28.455Z,2.64
2024-04-11T05:24:28.398Z,2.67
2024-04-11T05:25:28.385Z,2.69
2024-04-11T05:26:28.392Z,2.74
2024-04-11T05:27:28.353Z,2.69
2024-04-11T05:28:28.340Z,2.65
2024-04-11T05:29:28.419Z,2.69
2024-04-11T05:30:28.336Z,2.74
2024-04-11T05:31:28.778Z,2.82
2024-04-11T05:32:28.328Z,2.83
2024-04-11T05:33:28.435Z,2.89
2024-04-11T05:34:28.419Z,2.93
2024-04-11T05:35:31.558Z,3.01
2024-04-11T05:36:28.239Z,3.05
2024-04-11T05:37:28.224Z,3.11
2024-04-11T05:38:28.269Z,3.18
2024-04-11T05:39:28.207Z,3.01
2024-04-11T05:40:28.194Z,2.83
2024-04-11T05:41:28.275Z,2.85
2024-04-11T05:42:28.811Z,2.95
2024-04-11T05:43:32.657Z,3.04
2024-04-11T05:44:29.276Z,3.18
2024-04-11T05:45:28.116Z,3.23
2024-04-11T05:46:28.110Z,3.32
2024-04-11T05:47:28.351Z,3.47
2024-04-11T05:48:28.224Z,3.56
2024-04-11T05:49:28.184Z,3.62
2024-04-11T05:50:28.070Z,3.69
2024-04-11T05:51:28.027Z,3.74
2024-04-11T05:52:28.011Z,3.81
2024-04-11T05:53:28.181Z,3.87
2024-04-11T05:54:28.068Z,3.87
2024-04-11T05:55:27.981Z,3.98
2024-04-11T05:56:28.093Z,4.12
2024-04-11T05:57:27.947Z,4.10
2024-04-11T05:58:27.936Z,4.22
2024-04-11T05:59:27.931Z,4.66
2024-04-11T06:00:27.904Z,5.29
2024-04-11T06:01:27.966Z,5.94
2024-04-11T06:02:28.003Z,6.44
2024-04-11T06:03:27.968Z,7.21
2024-04-11T06:04:27.911Z,7.80
2024-04-11T06:05:27.936Z,8.42
2024-04-11T06:06:27.823Z,8.64
2024-04-11T06:07:27.810Z,8.88
2024-04-11T06:08:27.828Z,8.99
2024-04-11T06:09:27.776Z,9.37
2024-04-11T06:10:27.776Z,9.64
2024-04-11T06:11:27.914Z,10.13
2024-04-11T06:12:27.801Z,10.26
2024-04-11T06:13:27.768Z,10.46
2024-04-11T06:14:27.747Z,10.35
2024-04-11T06:15:27.700Z,10.71
2024-04-11T06:16:27.744Z,11.12
2024-04-11T06:17:27.794Z,11.43
2024-04-11T06:18:27.772Z,11.75
2024-04-11T06:19:27.643Z,12.13
2024-04-11T06:20:27.712Z,12.42
2024-04-11T06:21:27.616Z,12.75
2024-04-11T06:22:27.602Z,13.15
2024-04-11T06:23:27.678Z,13.49
2024-04-11T06:24:27.671Z,13.74
2024-04-11T06:25:27.573Z,13.92
2024-04-11T06:26:27.574Z,14.15
2024-04-11T06:27:27.535Z,14.43
2024-04-11T06:28:27.520Z,14.69
2024-04-11T06:29:27.522Z,14.89
2024-04-11T06:30:27.496Z,14.97
2024-04-11T06:31:27.484Z,15.22
2024-04-11T06:32:27.507Z,15.24
2024-04-11T06:33:27.513Z,15.39
2024-04-11T06:34:27.686Z,15.52
2024-04-11T06:35:27.473Z,15.59
2024-04-11T06:36:27.453Z,15.73
2024-04-11T06:37:27.402Z,15.92
2024-04-11T06:38:27.425Z,16.16
2024-04-11T06:39:27.379Z,16.39
2024-04-11T06:40:27.372Z,16.57
2024-04-11T06:41:27.371Z,16.78
2024-04-11T06:42:27.360Z,16.79
2024-04-11T06:43:27.338Z,16.94
2024-04-11T06:44:27.339Z,16.66
2024-04-11T06:45:27.307Z,16.60
2024-04-11T06:46:27.810Z,16.60
2024-04-11T06:47:32.158Z,16.47
2024-04-11T06:48:28.359Z,16.35
2024-04-11T06:49:27.253Z,16.08
2024-04-11T06:50:27.274Z,16.17
2024-04-11T06:51:27.210Z,16.31
2024-04-11T06:52:27.221Z,16.57
2024-04-11T06:53:27.224Z,16.16
2024-04-11T06:54:27.176Z,16.46
2024-04-11T06:55:27.159Z,16.83
2024-04-11T06:56:27.193Z,17.08
2024-04-11T06:57:27.139Z,17.04
2024-04-11T06:58:27.130Z,17.36
2024-04-11T06:59:27.159Z,17.76
2024-04-11T07:00:27.096Z,18.08
2024-04-11T07:01:27.089Z,18.37
2024-04-11T07:02:27.106Z,18.63
2024-04-11T07:03:27.186Z,18.80
2024-04-11T07:04:27.057Z,18.34
2024-04-11T07:05:27.118Z,18.20
2024-04-11T07:06:27.040Z,18.44
2024-04-11T07:07:27.006Z,18.19
2024-04-11T07:08:27.020Z,18.00
2024-04-11T07:09:26.978Z,18.29
2024-04-11T07:10:26.964Z,18.63
2024-04-11T07:11:26.975Z,18.99
2024-04-11T07:12:26.941Z,19.07
2024-04-11T07:13:26.931Z,19.31
2024-04-11T07:14:26.922Z,19.45
2024-04-11T07:15:26.922Z,19.70
2024-04-11T07:16:26.931Z,19.82
2024-04-11T07:17:26.976Z,19.79
2024-04-11T07:18:26.935Z,19.86
2024-04-11T07:19:26.845Z,19.92
2024-04-11T07:20:26.850Z,20.10
2024-04-11T07:21:26.893Z,20.14
2024-04-11T07:22:26.834Z,19.62
2024-04-11T07:23:26.851Z,19.85
2024-04-11T07:24:26.802Z,20.09
2024-04-11T07:25:26.776Z,20.14
2024-04-11T07:26:26.810Z,20.16
2024-04-11T07:27:26.744Z,20.34
2024-04-11T07:28:26.742Z,20.48
2024-04-11T07:29:26.768Z,20.72
2024-04-11T07:30:26.709Z,20.95
2024-04-11T07:31:26.702Z,21.12
2024-04-11T07:32:26.847Z,21.22
2024-04-11T07:33:26.768Z,21.24
2024-04-11T07:34:26.659Z,21.21
2024-04-11T07:35:26.696Z,21.22
2024-04-11T07:36:26.633Z,21.32
2024-04-11T07:37:26.704Z,21.21
2024-04-11T07:38:26.671Z,21.18
2024-04-11T07:39:26.590Z,21.22
2024-04-11T07:40:26.592Z,21.43
2024-04-11T07:41:26.584Z,21.61
2024-04-11T07:42:26.550Z,21.57
2024-04-11T07:43:26.559Z,21.61
2024-04-11T07:44:26.625Z,21.77
2024-04-11T07:45:26.532Z,21.79
2024-04-11T07:46:26.508Z,21.89
2024-04-11T07:47:38.530Z,21.89
2024-04-11T07:48:27.692Z,21.77
2024-04-11T07:49:26.564Z,21.66
2024-04-11T07:50:26.526Z,21.60
2024-04-11T07:51:26.430Z,21.51
2024-04-11T07:52:26.407Z,21.20
2024-04-11T07:53:26.474Z,20.59
2024-04-11T07:54:37.116Z,19.96
2024-04-11T07:55:27.439Z,19.27
2024-04-11T07:56:26.431Z,18.88
2024-04-11T07:57:26.357Z,18.68
2024-04-11T07:58:26.344Z,18.00
2024-04-11T07:59:26.348Z,17.63
2024-04-11T08:00:27.191Z,17.59
2024-04-11T08:01:26.311Z,17.90
2024-04-11T08:02:26.312Z,18.40
2024-04-11T08:03:26.288Z,18.93
2024-04-11T08:04:26.295Z,19.21
2024-04-11T08:05:26.388Z,19.55
2024-04-11T08:06:26.278Z,19.70
2024-04-11T08:07:26.227Z,19.66
2024-04-11T08:08:26.245Z,19.54
2024-04-11T08:09:26.254Z,19.40
2024-04-11T08:10:26.199Z,19.30
2024-04-11T08:11:26.291Z,19.27
2024-04-11T08:12:26.159Z,18.81
2024-04-11T08:13:28.527Z,18.37
2024-04-11T08:14:26.173Z,18.28
2024-04-11T08:15:26.129Z,18.40
2024-04-11T08:16:26.177Z,18.62
2024-04-11T08:17:26.110Z,19.08
2024-04-11T08:18:26.148Z,19.34
2024-04-11T08:19:26.066Z,19.63
2024-04-11T08:20:26.059Z,19.99
2024-04-11T08:21:26.079Z,20.16
2024-04-11T08:22:26.303Z,20.32
2024-04-11T08:23:26.050Z,20.36
2024-04-11T08:24:25.995Z,20.25
2024-04-11T08:25:26.059Z,19.74
2024-04-11T08:26:25.998Z,19.39
2024-04-11T08:27:25.960Z,19.29
2024-04-11T08:28:25.949Z,19.18
2024-04-11T08:29:25.962Z,18.90
2024-04-11T08:30:25.925Z,18.89
2024-04-11T08:31:25.909Z,18.63
2024-04-11T08:32:25.922Z,18.37
2024-04-11T08:33:25.988Z,18.15
2024-04-11T08:34:26.348Z,17.90
2024-04-11T08:35:25.925Z,18.13
2024-04-11T08:36:25.857Z,18.28
2024-04-11T08:37:25.831Z,18.35
2024-04-11T08:38:25.886Z,18.40
2024-04-11T08:39:25.813Z,18.35
2024-04-11T08:40:25.789Z,18.40
2024-04-11T08:41:25.798Z,18.34
2024-04-11T08:42:25.779Z,18.53
2024-04-11T08:43:25.762Z,18.73
2024-04-11T08:44:25.748Z,18.93
2024-04-11T08:45:25.724Z,19.26
2024-04-11T08:46:25.719Z,19.29
2024-04-11T08:47:25.832Z,19.04
2024-04-11T08:48:25.935Z,18.60
2024-04-11T08:49:25.869Z,18.26
2024-04-11T08:50:25.923Z,17.89
2024-04-11T08:51:25.744Z,17.38
2024-04-11T08:52:25.698Z,16.64
2024-04-11T08:53:25.666Z,16.13
2024-04-11T08:54:25.600Z,15.80
2024-04-11T08:55:25.608Z,15.59
2024-04-11T08:56:25.599Z,15.62
2024-04-11T08:57:25.572Z,15.52
2024-04-11T08:58:25.574Z,15.52
2024-04-11T08:59:25.914Z,15.61
2024-04-11T09:00:25.540Z,15.73
2024-04-11T09:01:25.515Z,15.61
2024-04-11T09:02:25.568Z,15.49
2024-04-11T09:03:25.566Z,15.15
2024-04-11T09:04:25.542Z,15.27
2024-04-11T09:05:25.496Z,15.35
2024-04-11T09:06:25.473Z,15.37
2024-04-11T09:07:25.455Z,15.57
2024-04-11T09:08:25.462Z,15.73
2024-04-11T09:09:25.409Z,15.82
2024-04-11T09:10:25.412Z,15.64
2024-04-11T09:11:27.548Z,15.33
2024-04-11T09:12:25.393Z,15.43
2024-04-11T09:13:25.379Z,15.61
2024-04-11T09:14:25.406Z,15.91
2024-04-11T09:15:25.340Z,16.15
2024-04-11T09:16:25.363Z,16.24
2024-04-11T09:17:25.368Z,16.43
2024-04-11T09:18:25.360Z,16.75
2024-04-11T09:19:25.284Z,17.15
2024-04-11T09:20:25.408Z,17.67
2024-04-11T09:21:25.256Z,18.13
2024-04-11T09:22:25.240Z,18.40
2024-04-11T09:23:25.263Z,18.22
2024-04-11T09:24:25.213Z,18.23
2024-04-11T09:25:25.201Z,18.07
2024-04-11T09:26:25.204Z,17.31
2024-04-11T09:27:25.179Z,17.04
2024-04-11T09:28:25.180Z,17.02
2024-04-11T09:29:26.573Z,17.05
2024-04-11T09:30:25.166Z,16.86
2024-04-11T09:31:25.130Z,16.64
2024-04-11T09:32:25.258Z,16.39
2024-04-11T09:33:25.235Z,16.49
2024-04-11T09:34:25.087Z,16.74
2024-04-11T09:35:25.081Z,16.81
2024-04-11T09:36:25.074Z,16.57
2024-04-11T09:37:25.257Z,16.29
2024-04-11T09:38:25.116Z,16.12
2024-04-11T09:39:25.039Z,15.98
2024-04-11T09:40:25.080Z,16.04
2024-04-11T09:41:25.213Z,16.00
2024-04-11T09:42:24.992Z,15.84
2024-04-11T09:43:24.974Z,15.88
2024-04-11T09:44:24.983Z,16.12
2024-04-11T09:45:24.965Z,16.26
2024-04-11T09:46:24.955Z,16.04
2024-04-11T09:47:25.109Z,15.83
2024-04-11T09:48:24.965Z,15.68
2024-04-11T09:49:24.905Z,15.61
2024-04-11T09:50:24.912Z,15.39
2024-04-11T09:51:24.875Z,15.21
2024-04-11T09:52:24.886Z,15.04
2024-04-11T09:53:24.858Z,14.89
2024-04-11T09:54:24.837Z,14.94
2024-04-11T09:55:24.824Z,14.92
2024-04-11T09:56:24.867Z,14.79
2024-04-11T09:57:24.808Z,14.88
2024-04-11T09:58:24.778Z,14.92
2024-04-11T09:59:24.782Z,15.07
2024-04-11T10:00:24.750Z,15.17
2024-04-11T10:01:24.740Z,15.18
2024-04-11T10:02:24.789Z,15.18
2024-04-11T10:03:24.827Z,15.07
2024-04-11T10:04:24.769Z,14.86
2024-04-11T10:05:24.926Z,14.53
2024-04-11T10:06:24.682Z,14.59
2024-04-11T10:07:24.665Z,14.53
2024-04-11T10:08:24.680Z,14.18
2024-04-11T10:09:24.639Z,14.18
2024-04-11T10:10:24.616Z,14.10
2024-04-11T10:11:24.697Z,14.08
2024-04-11T10:12:24.622Z,14.11
2024-04-11T10:13:24.598Z,14.20
2024-04-11T10:14:24.597Z,14.18
2024-04-11T10:15:24.559Z,14.25
2024-04-11T10:16:24.543Z,14.28
2024-04-11T10:17:24.617Z,14.43
2024-04-11T10:18:24.614Z,14.48
2024-04-11T10:19:24.927Z,14.54
2024-04-11T10:20:24.514Z,14.63
2024-04-11T10:21:28.024Z,14.68
2024-04-11T10:22:25.492Z,14.54
2024-04-11T10:23:24.455Z,14.55
2024-04-11T10:24:24.435Z,14.50
2024-04-11T10:25:24.433Z,14.53
2024-04-11T10:26:24.439Z,14.54
2024-04-11T10:27:24.397Z,14.59
2024-04-11T10:28:24.391Z,14.59
2024-04-11T10:29:24.476Z,14.60
2024-04-11T10:30:24.357Z,14.55
2024-04-11T10:31:24.349Z,14.58
2024-04-11T10:32:25.108Z,14.55
2024-04-11T10:33:24.437Z,14.45
2024-04-11T10:34:24.320Z,14.55
2024-04-11T10:35:24.319Z,14.68
2024-04-11T10:36:24.280Z,14.77
2024-04-11T10:37:24.267Z,14.86
2024-04-11T10:38:24.293Z,15.02
2024-04-11T10:39:24.241Z,14.84
2024-04-11T10:40:24.236Z,14.78
2024-04-11T10:41:24.211Z,14.65
2024-04-11T10:42:24.213Z,14.47
2024-04-11T10:43:24.188Z,14.35
2024-04-11T10:44:24.194Z,14.15
2024-04-11T10:45:24.168Z,14.22
2024-04-11T10:46:24.221Z,14.29
2024-04-11T10:47:24.194Z,14.30
2024-04-11T10:48:24.181Z,14.41
2024-04-11T10:49:24.164Z,14.58
2024-04-11T10:50:24.286Z,14.68
2024-04-11T10:51:24.108Z,14.72
2024-04-11T10:52:24.082Z,14.81
2024-04-11T10:53:24.089Z,14.88
2024-04-11T10:54:24.052Z,15.00
2024-04-11T10:55:24.518Z,14.92
2024-04-11T10:56:24.050Z,14.82
2024-04-11T10:57:24.025Z,14.66
2024-04-11T10:58:24.304Z,14.58
2024-04-11T10:59:24.250Z,14.47
2024-04-11T11:00:23.963Z,14.48
2024-04-11T11:01:23.982Z,14.55
2024-04-11T11:02:24.038Z,14.69
2024-04-11T11:03:24.173Z,14.81
2024-04-11T11:04:24.111Z,14.84
2024-04-11T11:05:23.910Z,14.91
2024-04-11T11:06:24.407Z,14.92
2024-04-11T11:07:23.879Z,15.03
2024-04-11T11:08:23.895Z,15.04
2024-04-11T11:09:23.845Z,15.06
2024-04-11T11:10:23.838Z,15.07
2024-04-11T11:11:23.943Z,14.99
2024-04-11T11:12:23.903Z,14.91
2024-04-11T11:13:23.815Z,14.79
2024-04-11T11:14:23.840Z,14.89
2024-04-11T11:15:23.803Z,15.04
2024-04-11T11:16:23.832Z,15.07
2024-04-11T11:17:23.892Z,15.03
2024-04-11T11:18:23.797Z,15.07
2024-04-11T11:19:23.825Z,15.15
2024-04-11T11:20:23.796Z,15.22
2024-04-11T11:21:23.896Z,15.24
2024-04-11T11:22:23.701Z,15.25
2024-04-11T11:23:23.685Z,15.21
2024-04-11T11:24:23.656Z,15.19
2024-04-11T11:25:23.637Z,15.21
2024-04-11T11:26:23.793Z,15.19
2024-04-11T11:27:23.614Z,15.19
2024-04-11T11:28:23.600Z,15.24
2024-04-11T11:29:23.587Z,15.18
2024-04-11T11:30:25.953Z,15.18
2024-04-11T11:31:23.585Z,15.19
2024-04-11T11:32:23.572Z,15.28
2024-04-11T11:33:23.653Z,15.39
2024-04-11T11:34:23.600Z,15.49
2024-04-11T11:35:23.647Z,15.43
2024-04-11T11:36:23.518Z,15.42
2024-04-11T11:37:23.488Z,15.49
2024-04-11T11:38:23.492Z,15.54
2024-04-11T11:39:23.457Z,15.46
2024-04-11T11:40:23.444Z,15.58
2024-04-11T11:41:23.435Z,15.54
2024-04-11T11:42:24.126Z,15.58
2024-04-11T11:43:23.404Z,15.54
2024-04-11T11:44:23.408Z,15.51
2024-04-11T11:45:23.379Z,15.47
2024-04-11T11:46:23.368Z,15.44
2024-04-11T11:47:23.500Z,15.46
2024-04-11T11:48:23.409Z,15.54
2024-04-11T11:49:23.316Z,15.44
2024-04-11T11:50:23.461Z,15.44
2024-04-11T11:51:23.319Z,15.42
2024-04-11T11:52:23.285Z,15.42
2024-04-11T11:53:23.283Z,15.39
2024-04-11T11:54:23.264Z,15.18
2024-04-11T11:55:23.254Z,15.15
2024-04-11T11:56:23.227Z,15.24
2024-04-11T11:57:23.226Z,15.36
2024-04-11T11:58:23.212Z,15.36
2024-04-11T11:59:23.194Z,15.29
2024-04-11T12:00:23.203Z,15.36
2024-04-11T12:01:23.176Z,15.43
2024-04-11T12:02:23.215Z,15.49
2024-04-11T12:03:28.489Z,15.57
2024-04-11T12:04:24.208Z,15.62
2024-04-11T12:05:23.119Z,15.77
2024-04-11T12:06:23.105Z,15.79
2024-04-11T12:07:23.087Z,15.82
2024-04-11T12:08:23.078Z,15.76
2024-04-11T12:09:23.079Z,15.79
2024-04-11T12:10:23.095Z,15.82
2024-04-11T12:11:23.630Z,15.77
2024-04-11T12:12:23.025Z,15.76
2024-04-11T12:13:23.013Z,15.80
2024-04-11T12:14:23.003Z,15.84
2024-04-11T12:15:22.992Z,15.94
2024-04-11T12:16:26.043Z,16.02
2024-04-11T12:17:22.975Z,15.98
2024-04-11T12:18:23.091Z,16.05
2024-04-11T12:19:22.933Z,16.10
2024-04-11T12:20:22.916Z,16.05
2024-04-11T12:21:22.965Z,16.15
2024-04-11T12:22:22.921Z,16.26
2024-04-11T12:23:22.883Z,16.33
2024-04-11T12:24:22.863Z,16.41
2024-04-11T12:25:22.857Z,16.51
2024-04-11T12:26:22.859Z,16.60
2024-04-11T12:27:22.826Z,16.72
2024-04-11T12:28:22.823Z,16.84
2024-04-11T12:29:22.850Z,16.89
2024-04-11T12:30:22.786Z,16.97
2024-04-11T12:31:22.773Z,17.05
2024-04-11T12:32:22.790Z,17.06
2024-04-11T12:33:22.852Z,17.08
2024-04-11T12:34:22.862Z,17.02
2024-04-11T12:35:22.732Z,17.05
2024-04-11T12:36:22.706Z,16.94
2024-04-11T12:37:22.693Z,16.90
2024-04-11T12:38:22.683Z,16.83
2024-04-11T12:39:22.677Z,16.71
2024-04-11T12:40:22.649Z,16.57
2024-04-11T12:41:22.639Z,16.56
2024-04-11T12:42:22.639Z,16.64
2024-04-11T12:43:22.615Z,16.61
2024-04-11T12:44:22.603Z,16.60
2024-04-11T12:45:22.589Z,16.65
2024-04-11T12:46:22.581Z,16.54
2024-04-11T12:47:22.594Z,16.54
2024-04-11T12:48:22.654Z,16.60
2024-04-11T12:49:22.538Z,16.65
2024-04-11T12:50:22.840Z,16.71
2024-04-11T12:51:22.510Z,16.79
2024-04-11T12:52:22.500Z,16.89
2024-04-11T12:53:22.493Z,16.94
2024-04-11T12:54:22.473Z,17.04
2024-04-11T12:55:22.462Z,17.09
2024-04-11T12:56:22.448Z,17.15
2024-04-11T12:57:22.435Z,17.16
2024-04-11T12:58:22.434Z,17.11
2024-04-11T12:59:22.409Z,17.15
2024-04-11T13:00:22.396Z,17.20
2024-04-11T13:01:22.372Z,17.29
2024-04-11T13:02:22.382Z,17.29
2024-04-11T13:03:22.423Z,17.15
2024-04-11T13:04:22.392Z,17.04